Time;durP1;ratioP1;P1;durP2;ratioP2;P2;SDS_P1;SDS_P2;PMS_P1;PMS_P2;Temp;Humidity;BMP_temperature;BMP_pressure;BME280_temperature;BME280_humidity;BME280_pressure;Samples;Min_cycle;Max_cycle;Signal;HPM_P1;HPM_P2
2022/08/28 00:00:28;;;;;;;0.47;0.32;;;21.80;99.90;;;;;;5031504;28;20064;-74
2022/08/28 00:02:55;;;;;;;0.10;0.10;;;21.70;99.90;;;;;;5030961;28;20123;-74
2022/08/28 00:05:25;;;;;;;1.63;1.00;;;21.80;99.90;;;;;;5030118;28;20033;-75
2022/08/28 00:07:51;;;;;;;0.40;0.30;;;21.90;99.90;;;;;;5030074;28;20520;-74
2022/08/28 00:10:20;;;;;;;0.13;0.13;;;21.80;99.90;;;;;;5030921;28;20025;-74
2022/08/28 00:12:47;;;;;;;0.17;0.17;;;21.70;99.90;;;;;;5029785;28;20473;-74
2022/08/28 00:15:21;;;;;;;0.10;0.10;;;21.80;99.90;;;;;;5031272;28;20481;-75
2022/08/28 00:17:47;;;;;;;0.05;0.05;;;21.90;99.90;;;;;;5029987;28;20030;-75
2022/08/28 00:20:17;;;;;;;0.63;0.63;;;22.00;99.90;;;;;;5029558;28;20037;-75
2022/08/28 00:22:44;;;;;;;0.00;0.00;;;22.00;99.90;;;;;;5029788;28;20030;-74
2022/08/28 00:25:12;;;;;;;0.38;0.32;;;22.10;99.90;;;;;;5013380;28;20029;-74
2022/08/28 00:27:55;;;;;;;0.30;0.30;;;22.10;99.90;;;;;;5029572;28;20168;-74
2022/08/28 00:30:36;;;;;;;1.38;1.15;;;22.00;99.90;;;;;;5029823;28;20034;-74
2022/08/28 00:33:26;;;;;;;0.20;0.20;;;22.10;99.90;;;;;;5030921;28;20038;-75
2022/08/28 00:35:53;;;;;;;0.08;0.08;;;22.10;99.90;;;;;;5031066;28;20064;-74
2022/08/28 00:38:20;;;;;;;0.03;0.03;;;22.10;99.90;;;;;;5029801;28;20087;-75
2022/08/28 00:40:52;;;;;;;0.20;0.20;;;22.20;99.90;;;;;;5029638;28;20116;-75
2022/08/28 00:43:46;;;;;;;0.05;0.05;;;22.20;99.90;;;;;;5029631;28;20033;-75
2022/08/28 00:46:20;;;;;;;0.22;0.20;;;22.20;99.90;;;;;;5026907;28;20490;-74
2022/08/28 00:48:47;;;;;;;0.00;0.00;;;22.20;99.90;;;;;;5029682;28;20029;-74
2022/08/28 00:54:01;;;;;;;0.00;0.00;;;22.20;99.90;;;;;;5029579;28;20120;-75
2022/08/28 00:56:31;;;;;;;0.80;0.57;;;22.20;99.90;;;;;;5033314;28;20030;-75
2022/08/28 00:59:06;;;;;;;0.00;0.00;;;22.20;99.90;;;;;;5033426;28;20071;-75
2022/08/28 01:01:31;;;;;;;1.25;0.47;;;22.00;99.90;;;;;;5033736;28;20033;-74
2022/08/28 01:03:57;;;;;;;0.38;0.38;;;22.00;99.90;;;;;;5032892;28;20050;-75
2022/08/28 01:06:23;;;;;;;0.40;0.30;;;22.00;99.90;;;;;;5028164;28;20159;-74
2022/08/28 01:08:52;;;;;;;1.45;1.35;;;22.00;99.90;;;;;;5016235;28;20060;-75
2022/08/28 01:11:19;;;;;;;0.00;0.00;;;22.00;99.90;;;;;;5017121;28;20080;-75
2022/08/28 01:13:47;;;;;;;0.20;0.20;;;22.00;99.90;;;;;;5034399;28;20033;-74
2022/08/28 01:16:16;;;;;;;0.22;0.15;;;22.00;99.90;;;;;;5033107;28;20056;-74
2022/08/28 01:18:42;;;;;;;0.80;0.32;;;21.90;99.90;;;;;;5016623;28;20037;-75
2022/08/28 01:21:35;;;;;;;0.28;0.28;;;21.70;99.90;;;;;;5016604;28;20041;-75
2022/08/28 01:24:08;;;;;;;0.03;0.03;;;21.70;99.90;;;;;;5017291;28;20034;-74
2022/08/28 01:26:34;;;;;;;0.55;0.38;;;21.80;99.90;;;;;;5016374;28;20025;-75
2022/08/28 01:29:01;;;;;;;1.00;0.43;;;21.90;99.90;;;;;;5033861;28;20389;-75
2022/08/28 01:31:30;;;;;;;0.43;0.43;;;21.80;99.90;;;;;;5033162;28;20080;-74
2022/08/28 01:33:58;;;;;;;0.00;0.00;;;21.70;99.90;;;;;;5032945;28;20038;-75
2022/08/28 01:36:24;;;;;;;0.75;0.75;;;21.80;99.90;;;;;;5032951;28;20033;-74
2022/08/28 01:38:57;;;;;;;0.10;0.10;;;21.90;99.90;;;;;;5032429;28;20041;-74
2022/08/28 01:41:24;;;;;;;2.55;0.80;;;21.80;99.90;;;;;;5032893;28;20052;-74
2022/08/28 01:43:50;;;;;;;0.17;0.17;;;21.80;99.90;;;;;;5033592;28;20124;-74
2022/08/28 01:46:16;;;;;;;0.05;0.00;;;21.90;99.90;;;;;;5033806;28;20112;-74
2022/08/28 01:48:43;;;;;;;3.22;1.15;;;21.90;99.90;;;;;;5015700;28;20029;-74
2022/08/28 01:51:10;;;;;;;1.10;0.73;;;21.90;99.90;;;;;;5016085;28;20033;-74
2022/08/28 01:53:40;;;;;;;0.60;0.45;;;22.00;99.90;;;;;;5033657;28;20041;-75
2022/08/28 01:56:10;;;;;;;0.10;0.10;;;22.00;99.90;;;;;;5000125;28;20046;-74
2022/08/28 01:58:37;;;;;;;0.28;0.28;;;21.90;99.90;;;;;;5033601;28;20083;-74
2022/08/28 02:01:09;;;;;;;0.45;0.40;;;21.80;99.90;;;;;;5015903;28;20079;-75
2022/08/28 02:03:34;;;;;;;0.28;0.25;;;21.80;99.90;;;;;;5016328;28;20035;-75
2022/08/28 02:06:00;;;;;;;3.60;0.80;;;21.70;99.90;;;;;;5015400;28;20116;-75
2022/08/28 02:08:26;;;;;;;0.38;0.38;;;21.60;99.90;;;;;;5033237;28;20389;-74
2022/08/28 02:10:52;;;;;;;0.52;0.52;;;21.60;99.90;;;;;;5033259;28;20026;-74
2022/08/28 02:13:17;;;;;;;1.08;0.35;;;21.50;99.90;;;;;;5033032;28;20045;-74
2022/08/28 02:15:44;;;;;;;0.03;0.03;;;21.50;99.90;;;;;;5015420;28;20026;-74
2022/08/28 02:18:10;;;;;;;0.55;0.45;;;21.50;99.90;;;;;;5015307;28;20041;-75
2022/08/28 02:20:37;;;;;;;0.70;0.52;;;21.50;99.90;;;;;;5024530;23;20043;-71
2022/08/28 02:23:03;;;;;;;0.00;0.00;;;21.50;99.90;;;;;;4993259;28;20076;-71
2022/08/28 02:25:29;;;;;;;0.10;0.10;;;21.50;99.90;;;;;;4993775;28;20034;-71
2022/08/28 02:27:55;;;;;;;0.22;0.20;;;21.50;99.90;;;;;;4986631;28;20379;-71
2022/08/28 02:30:22;;;;;;;2.00;0.50;;;21.40;99.90;;;;;;4974037;28;20027;-71
2022/08/28 02:32:49;;;;;;;0.10;0.10;;;21.30;99.90;;;;;;4972754;28;20027;-71
2022/08/28 02:35:17;;;;;;;0.00;0.00;;;21.30;99.90;;;;;;4974117;28;20038;-71
2022/08/28 02:37:44;;;;;;;0.10;0.10;;;21.20;99.90;;;;;;4972877;28;20045;-71
2022/08/28 02:40:15;;;;;;;0.13;0.13;;;21.30;99.90;;;;;;4973692;28;20033;-71
2022/08/28 02:42:41;;;;;;;0.95;0.65;;;21.30;99.90;;;;;;4973789;28;20126;-71
2022/08/28 02:45:10;;;;;;;0.20;0.20;;;21.30;99.90;;;;;;4972840;28;20041;-70
2022/08/28 02:47:41;;;;;;;0.00;0.00;;;21.20;99.90;;;;;;4973931;28;20467;-71
2022/08/28 02:50:12;;;;;;;0.80;0.65;;;21.20;99.90;;;;;;4973623;28;20027;-71
2022/08/28 02:52:38;;;;;;;0.65;0.60;;;21.20;99.90;;;;;;4973729;28;20066;-71
2022/08/28 02:55:06;;;;;;;0.63;0.35;;;21.20;99.90;;;;;;4973833;28;20126;-71
2022/08/28 02:57:32;;;;;;;0.13;0.08;;;21.20;99.90;;;;;;4973678;28;20023;-71
2022/08/28 02:59:58;;;;;;;0.35;0.32;;;21.20;99.90;;;;;;4972354;28;20081;-70
2022/08/28 03:02:24;;;;;;;0.00;0.00;;;21.00;99.90;;;;;;4972295;28;20058;-71
2022/08/28 03:04:51;;;;;;;0.28;0.28;;;21.00;99.90;;;;;;4972260;28;20398;-71
2022/08/28 03:07:18;;;;;;;1.15;0.95;;;21.10;99.90;;;;;;4972533;28;20110;-71
2022/08/28 03:09:44;;;;;;;0.08;0.08;;;21.00;99.90;;;;;;4972332;28;20026;-71
2022/08/28 03:12:12;;;;;;;0.00;0.00;;;21.10;99.90;;;;;;4973253;28;20105;-71
2022/08/28 03:14:38;;;;;;;2.38;0.47;;;21.00;99.90;;;;;;4976384;28;20506;-71
2022/08/28 03:17:06;;;;;;;0.00;0.00;;;21.10;99.90;;;;;;4992265;28;20113;-70
2022/08/28 03:19:32;;;;;;;0.00;0.00;;;21.10;99.90;;;;;;4990982;28;20026;-70
2022/08/28 03:21:58;;;;;;;0.38;0.38;;;21.00;99.90;;;;;;4992614;28;20022;-71
2022/08/28 03:24:24;;;;;;;0.00;0.00;;;21.10;99.90;;;;;;4991371;28;20409;-71
2022/08/28 03:26:50;;;;;;;0.88;0.68;;;21.10;99.90;;;;;;4992670;28;20034;-71
2022/08/28 03:29:16;;;;;;;0.10;0.10;;;21.10;99.90;;;;;;4992546;28;20501;-70
2022/08/28 03:31:41;;;;;;;0.00;0.00;;;21.20;99.90;;;;;;4992376;28;20141;-70
2022/08/28 03:34:08;;;;;;;0.05;0.05;;;21.20;99.90;;;;;;4992139;28;20142;-70
2022/08/28 03:36:34;;;;;;;0.20;0.20;;;21.20;99.90;;;;;;4992521;28;20596;-70
2022/08/28 03:39:05;;;;;;;0.10;0.10;;;21.10;99.90;;;;;;4990843;28;20117;-70
2022/08/28 03:41:31;;;;;;;;;;;21.10;99.90;;;;;;4991649;28;20037;-70
2022/08/28 03:43:59;;;;;;;0.20;0.20;;;21.10;99.90;;;;;;4992111;28;19914;-70
2022/08/28 03:46:28;;;;;;;0.00;0.00;;;21.00;99.90;;;;;;4992330;28;20089;-70
2022/08/28 03:48:54;;;;;;;0.32;0.20;;;20.90;99.90;;;;;;4990621;28;20045;-71
2022/08/28 03:51:27;;;;;;;2.08;0.70;;;20.90;99.90;;;;;;4992319;28;20045;-71
2022/08/28 03:53:53;;;;;;;0.20;0.20;;;20.80;99.90;;;;;;4990879;28;20109;-71
2022/08/28 03:56:23;;;;;;;0.10;0.05;;;20.80;99.90;;;;;;4992363;28;20470;-71
2022/08/28 03:58:52;;;;;;;1.98;1.00;;;20.70;99.90;;;;;;4991882;28;20097;-71
2022/08/28 04:01:19;;;;;;;21.95;0.65;;;20.70;99.90;;;;;;4990904;28;20030;-71
2022/08/28 04:03:45;;;;;;;0.10;0.10;;;20.80;99.90;;;;;;4990255;28;20045;-71
2022/08/28 04:06:11;;;;;;;0.47;0.47;;;20.80;99.90;;;;;;4990763;28;20387;-71
2022/08/28 04:08:38;;;;;;;0.30;0.22;;;20.80;99.90;;;;;;4991788;28;20109;-71
2022/08/28 04:11:05;;;;;;;0.00;0.00;;;20.70;99.90;;;;;;4991763;28;20050;-71
2022/08/28 04:13:31;;;;;;;0.00;0.00;;;20.80;99.90;;;;;;4990474;28;20474;-70
2022/08/28 04:16:01;;;;;;;0.28;0.20;;;20.70;99.90;;;;;;4991764;28;20109;-70
2022/08/28 04:18:28;;;;;;;0.00;0.00;;;20.70;99.90;;;;;;4991648;28;20483;-70
2022/08/28 04:21:00;;;;;;;0.73;0.40;;;20.70;99.90;;;;;;5006451;28;20324;-71
2022/08/28 04:23:25;;;;;;;0.00;0.00;;;20.60;99.90;;;;;;4991492;28;20038;-71
2022/08/28 04:25:52;;;;;;;0.20;0.20;;;20.50;99.90;;;;;;4991696;28;20113;-71
2022/08/28 04:28:18;;;;;;;1.27;0.52;;;20.60;99.90;;;;;;4991643;28;20029;-71
2022/08/28 04:30:44;;;;;;;1.55;0.55;;;20.60;99.90;;;;;;4991299;28;20034;-71
2022/08/28 04:33:10;;;;;;;0.00;0.00;;;20.60;99.90;;;;;;4991564;28;20125;-71
2022/08/28 04:35:36;;;;;;;0.00;0.00;;;20.60;99.90;;;;;;5006518;28;20113;-71
2022/08/28 04:38:01;;;;;;;0.00;0.00;;;20.70;99.90;;;;;;4991662;28;20031;-71
2022/08/28 04:40:27;;;;;;;0.00;0.00;;;20.70;99.90;;;;;;4991375;28;20030;-71
2022/08/28 04:42:53;;;;;;;1.55;0.65;;;20.70;99.90;;;;;;4991430;28;20387;-71
2022/08/28 04:45:18;;;;;;;0.32;0.32;;;20.70;99.90;;;;;;4991450;28;20030;-71
2022/08/28 04:47:44;;;;;;;0.80;0.65;;;20.70;99.90;;;;;;4991596;28;20100;-71
2022/08/28 04:50:10;;;;;;;0.00;0.00;;;20.70;99.90;;;;;;4991047;28;20034;-71
2022/08/28 04:52:36;;;;;;;0.08;0.08;;;20.60;99.90;;;;;;4991324;28;20030;-71
2022/08/28 04:55:03;;;;;;;1.35;0.47;;;20.60;99.90;;;;;;4991329;28;20032;-71
2022/08/28 04:57:29;;;;;;;0.00;0.00;;;20.70;99.90;;;;;;4991422;28;20714;-71
2022/08/28 04:59:57;;;;;;;1.30;1.08;;;20.70;99.90;;;;;;4991157;28;20445;-71
2022/08/28 05:02:23;;;;;;;1.27;0.30;;;20.70;99.90;;;;;;4990114;28;20027;-71
2022/08/28 05:04:49;;;;;;;0.00;0.00;;;20.80;99.90;;;;;;4991109;28;20034;-70
2022/08/28 05:07:15;;;;;;;0.75;0.32;;;20.70;99.90;;;;;;4990168;28;20560;-71
2022/08/28 05:09:40;;;;;;;0.00;0.00;;;20.70;99.90;;;;;;4991045;28;20438;-71
2022/08/28 05:12:06;;;;;;;0.10;0.10;;;20.70;99.90;;;;;;4989976;28;20073;-71
2022/08/28 05:14:32;;;;;;;0.35;0.35;;;20.70;99.90;;;;;;4989862;28;20418;-71
2022/08/28 05:16:58;;;;;;;0.10;0.10;;;20.80;99.90;;;;;;4991276;28;20031;-71
2022/08/28 05:19:26;;;;;;;0.45;0.45;;;20.90;99.90;;;;;;4990911;28;20072;-71
2022/08/28 05:21:53;;;;;;;0.10;0.00;;;20.80;99.90;;;;;;4991157;28;20573;-70
2022/08/28 05:24:21;;;;;;;0.00;0.00;;;20.90;99.90;;;;;;4990978;28;20026;-71
2022/08/28 05:26:47;;;;;;;0.00;0.00;;;20.70;99.90;;;;;;4990094;28;20050;-71
2022/08/28 05:29:13;;;;;;;0.10;0.10;;;20.80;99.90;;;;;;4989725;28;20061;-71
2022/08/28 05:31:41;;;;;;;0.03;0.03;;;20.80;99.90;;;;;;4991182;28;20105;-71
2022/08/28 05:34:07;;;;;;;0.10;0.10;;;20.80;99.90;;;;;;4990890;28;20616;-71
2022/08/28 05:36:37;;;;;;;0.17;0.17;;;20.90;99.90;;;;;;4990872;28;20031;-71
2022/08/28 05:39:10;;;;;;;0.00;0.00;;;20.70;99.90;;;;;;4990937;28;20031;-71
2022/08/28 05:41:38;;;;;;;0.10;0.10;;;20.80;99.90;;;;;;4991735;28;20030;-71
2022/08/28 05:44:08;;;;;;;0.95;0.80;;;20.90;99.90;;;;;;4994314;28;20060;-71
2022/08/28 05:46:38;;;;;;;0.10;0.10;;;20.90;99.90;;;;;;4993393;28;20104;-71
2022/08/28 05:49:04;;;;;;;0.00;0.00;;;20.90;99.90;;;;;;4994171;28;20034;-71
2022/08/28 05:51:30;;;;;;;0.52;0.43;;;20.90;99.90;;;;;;4992992;28;20034;-71
2022/08/28 05:53:57;;;;;;;0.00;0.00;;;20.90;99.90;;;;;;4994144;28;20033;-71
2022/08/28 05:56:29;;;;;;;0.00;0.00;;;20.80;99.90;;;;;;4992946;28;20044;-71
2022/08/28 05:58:56;;;;;;;0.35;0.22;;;20.90;99.90;;;;;;4994026;28;20162;-71
2022/08/28 06:01:27;;;;;;;0.00;0.00;;;20.90;99.90;;;;;;4993867;28;20041;-71
2022/08/28 06:04:16;;;;;;;0.25;0.22;;;21.00;99.90;;;;;;4992873;28;20034;-71
2022/08/28 06:06:43;;;;;;;0.65;0.52;;;21.10;99.90;;;;;;4992894;28;20640;-71
2022/08/28 06:09:21;;;;;;;0.00;0.00;;;21.10;99.90;;;;;;4992725;28;20034;-71
2022/08/28 06:11:48;;;;;;;0.43;0.30;;;21.20;99.90;;;;;;4993969;28;20481;-69
2022/08/28 06:14:19;;;;;;;0.00;0.00;;;21.10;99.90;;;;;;4993490;28;20066;-73
2022/08/28 06:16:49;;;;;;;0.20;0.20;;;21.30;99.90;;;;;;4991060;28;20060;-72
2022/08/28 06:19:16;;;;;;;5.23;0.30;;;21.30;99.90;;;;;;4991825;28;20046;-71
2022/08/28 06:21:43;;;;;;;0.52;0.52;;;21.40;99.90;;;;;;4992624;28;20404;-73
2022/08/28 06:24:11;;;;;;;3.10;1.15;;;21.60;99.90;;;;;;4991498;28;20053;-73
2022/08/28 06:26:37;;;;;;;0.57;0.57;;;21.50;99.90;;;;;;4992521;28;20026;-72
2022/08/28 06:29:09;;;;;;;0.20;0.20;;;21.60;99.90;;;;;;4983007;28;20030;-73
2022/08/28 06:31:35;;;;;;;0.00;0.00;;;21.50;99.90;;;;;;4981972;28;20109;-72
2022/08/28 06:34:02;;;;;;;0.13;0.13;;;21.50;99.90;;;;;;4993002;28;20137;-68
2022/08/28 06:36:31;;;;;;;0.43;0.43;;;21.60;99.90;;;;;;4990150;28;20030;-69
2022/08/28 06:38:58;;;;;;;0.00;0.00;;;21.50;99.90;;;;;;4993125;28;20134;-65
2022/08/28 06:41:27;;;;;;;0.43;0.35;;;21.60;99.90;;;;;;4993530;28;20109;-65
2022/08/28 06:43:54;;;;;;;0.00;0.00;;;21.50;99.90;;;;;;4993014;28;20034;-66
2022/08/28 06:46:20;;;;;;;0.20;0.10;;;21.60;99.90;;;;;;4993394;28;20026;-65
2022/08/28 06:48:46;;;;;;;0.00;0.00;;;21.90;99.90;;;;;;5008128;28;20032;-65
2022/08/28 06:51:13;;;;;;;0.10;0.10;;;21.80;99.90;;;;;;4993211;28;20053;-65
2022/08/28 06:53:41;;;;;;;0.00;0.00;;;22.00;99.90;;;;;;5006713;28;20465;-66
2022/08/28 06:56:11;;;;;;;0.25;0.25;;;22.10;99.90;;;;;;4993035;28;20039;-65
2022/08/28 06:58:41;;;;;;;1.15;0.70;;;22.20;99.90;;;;;;5007921;28;20030;-65
2022/08/28 07:01:23;;;;;;;0.20;0.20;;;22.20;99.90;;;;;;4993105;28;20045;-66
2022/08/28 07:03:52;;;;;;;1.45;0.47;;;22.10;99.90;;;;;;4992836;28;20120;-64
2022/08/28 07:06:20;;;;;;;0.25;0.22;;;22.20;99.90;;;;;;4991577;28;20034;-65
2022/08/28 07:08:46;;;;;;;1.55;0.32;;;22.30;99.90;;;;;;4991219;28;20033;-66
2022/08/28 07:11:27;;;;;;;0.20;0.15;;;22.40;99.90;;;;;;4991479;28;20022;-65
2022/08/28 07:13:54;;;;;;;;;;;22.40;99.90;;;;;;4991696;28;20064;-65
2022/08/28 07:16:27;;;;;;;0.30;0.20;;;22.40;99.90;;;;;;5007784;28;19940;-66
2022/08/28 07:18:53;;;;;;;0.08;0.08;;;22.30;99.90;;;;;;4992248;28;20478;-66
2022/08/28 07:21:19;;;;;;;0.85;0.75;;;22.50;99.90;;;;;;4992777;28;20038;-65
2022/08/28 07:23:45;;;;;;;0.10;0.10;;;22.40;99.90;;;;;;4992133;28;20041;-66
2022/08/28 07:26:22;;;;;;;0.73;0.63;;;22.70;99.90;;;;;;4991355;28;20037;-66
2022/08/28 07:28:50;;;;;;;0.00;0.00;;;22.90;99.90;;;;;;4956776;28;20050;-65
2022/08/28 07:31:21;;;;;;;4.20;1.27;;;23.00;99.90;;;;;;4987959;28;20030;-65
2022/08/28 07:33:47;;;;;;;0.25;0.25;;;23.00;99.90;;;;;;4972922;28;20126;-65
2022/08/28 07:36:17;;;;;;;0.13;0.10;;;23.00;99.90;;;;;;4972697;28;20118;-65
2022/08/28 07:38:43;;;;;;;2.03;1.10;;;23.00;99.90;;;;;;4972512;28;20062;-68
2022/08/28 07:41:30;;;;;;;0.30;0.30;;;23.10;99.90;;;;;;4972697;28;20043;-69
2022/08/28 07:46:40;;;;;;;0.00;0.00;;;22.70;99.90;;;;;;4947265;28;20034;-68
2022/08/28 07:49:07;;;;;;;5.53;1.27;;;23.00;99.90;;;;;;4979436;28;20022;-69
2022/08/28 07:51:33;;;;;;;2.47;0.80;;;23.00;99.90;;;;;;4991792;28;20057;-69
2022/08/28 07:54:00;;;;;;;0.10;0.10;;;23.20;99.90;;;;;;4990309;28;20026;-68
2022/08/28 07:56:28;;;;;;;0.35;0.35;;;23.30;99.90;;;;;;4991824;28;20030;-69
2022/08/28 07:59:00;;;;;;;3.53;1.02;;;23.30;99.90;;;;;;4991594;28;20030;-68
2022/08/28 08:01:28;;;;;;;1.45;0.63;;;23.10;99.90;;;;;;4990797;28;20038;-69
2022/08/28 08:03:54;;;;;;;1.42;1.15;;;23.10;99.90;;;;;;4991223;28;20035;-66
2022/08/28 08:06:20;;;;;;;0.10;0.10;;;23.30;99.90;;;;;;4990640;28;20026;-66
2022/08/28 08:08:47;;;;;;;0.60;0.50;;;23.30;99.90;;;;;;4991653;28;20536;-66
2022/08/28 08:11:17;;;;;;;1.65;0.40;;;23.40;99.90;;;;;;4974296;28;20030;-66
2022/08/28 08:13:45;;;;;;;2.03;0.83;;;23.30;99.90;;;;;;4991533;28;20394;-70
2022/08/28 08:16:16;;;;;;;0.32;0.32;;;22.80;99.90;;;;;;4990270;28;20597;-66
2022/08/28 08:18:42;;;;;;;0.00;0.00;;;22.70;99.90;;;;;;4991521;28;20034;-66
2022/08/28 08:21:11;;;;;;;0.55;0.40;;;22.80;99.90;;;;;;4990909;28;20034;-66
2022/08/28 08:23:39;;;;;;;0.00;0.00;;;22.30;99.90;;;;;;4990519;28;20117;-66
2022/08/28 08:26:16;;;;;;;1.40;0.75;;;22.60;99.90;;;;;;4990159;28;20030;-66
2022/08/28 08:28:42;;;;;;;0.10;0.08;;;22.70;99.90;;;;;;4971100;28;20047;-66
2022/08/28 08:31:23;;;;;;;1.08;0.55;;;22.80;99.90;;;;;;4987301;28;20502;-66
2022/08/28 08:33:54;;;;;;;0.90;0.40;;;22.80;99.90;;;;;;4972016;28;20035;-65
2022/08/28 08:36:25;;;;;;;0.00;0.00;;;22.80;99.90;;;;;;4992670;28;20057;-66
2022/08/28 08:38:52;;;;;;;1.27;0.80;;;23.00;99.90;;;;;;5006265;28;20030;-67
2022/08/28 08:41:30;;;;;;;0.00;0.00;;;23.00;99.90;;;;;;5006371;28;20033;-67
2022/08/28 08:44:13;;;;;;;4.28;1.45;;;23.00;99.90;;;;;;4990917;28;20081;-67
2022/08/28 08:47:12;;;;;;;0.25;0.25;;;23.00;99.90;;;;;;4991524;28;20482;-68
2022/08/28 08:49:46;;;;;;;0.57;0.50;;;23.10;99.90;;;;;;5004021;28;20455;-67
2022/08/28 08:52:49;;;;;;;0.15;0.15;;;23.10;99.90;;;;;;4989977;28;20446;-67
2022/08/28 08:55:34;;;;;;;0.00;0.00;;;23.30;99.90;;;;;;4989980;28;20037;-67
2022/08/28 08:58:16;;;;;;;2.08;0.43;;;23.40;99.90;;;;;;5004903;28;20041;-67
2022/08/28 09:00:56;;;;;;;0.20;0.20;;;23.20;99.90;;;;;;4991178;28;20030;-66
2022/08/28 09:03:42;;;;;;;0.08;0.08;;;22.90;99.90;;;;;;4991132;28;20031;-67
2022/08/28 09:06:48;;;;;;;0.10;0.05;;;23.10;99.90;;;;;;4975513;28;20030;-67
2022/08/28 09:09:51;;;;;;;0.13;0.13;;;23.40;99.90;;;;;;5005847;28;20042;-68
2022/08/28 09:12:25;;;;;;;0.30;0.30;;;23.50;99.90;;;;;;4988639;28;20027;-67
2022/08/28 09:15:08;;;;;;;0.43;0.43;;;23.80;99.90;;;;;;4990943;28;20041;-67
2022/08/28 09:17:52;;;;;;;0.05;0.05;;;24.00;99.90;;;;;;4994662;28;20109;-67
2022/08/28 09:20:24;;;;;;;0.00;0.00;;;24.20;99.90;;;;;;5008689;28;20034;-69
2022/08/28 09:22:50;;;;;;;0.10;0.08;;;23.90;99.90;;;;;;4994606;28;20427;-69
2022/08/28 09:25:47;;;;;;;0.57;0.55;;;24.20;99.90;;;;;;4980779;28;20380;-69
2022/08/28 09:28:27;;;;;;;0.93;0.90;;;24.30;99.90;;;;;;4985932;28;20049;-71
2022/08/28 09:31:06;;;;;;;1.27;0.80;;;24.90;99.90;;;;;;4993170;28;20027;-69
2022/08/28 09:33:43;;;;;;;0.15;0.15;;;25.00;99.90;;;;;;4993290;28;20035;-69
2022/08/28 09:36:32;;;;;;;3.42;0.38;;;25.10;99.90;;;;;;4993452;28;20029;-69
2022/08/28 09:39:21;;;;;;;3.33;0.77;;;25.10;99.30;;;;;;4992309;28;20094;-69
2022/08/28 09:45:17;;;;;;;0.13;0.10;;;25.70;98.70;;;;;;4993895;28;20062;-69
2022/08/28 09:47:55;;;;;;;0.22;0.22;;;25.70;97.90;;;;;;4993999;28;20464;-69
2022/08/28 09:50:37;;;;;;;0.63;0.52;;;25.80;97.90;;;;;;4992459;28;20019;-69
2022/08/28 09:53:09;;;;;;;0.55;0.55;;;26.00;97.10;;;;;;4992509;28;20081;-69
2022/08/28 09:56:01;;;;;;;0.73;0.15;;;25.90;97.20;;;;;;4992661;28;20065;-69
2022/08/28 09:58:44;;;;;;;0.20;0.13;;;26.10;96.90;;;;;;4990786;28;20541;-69
2022/08/28 10:01:40;;;;;;;0.40;0.40;;;26.30;96.30;;;;;;4983998;28;20518;-69
2022/08/28 10:04:52;;;;;;;0.22;0.22;;;26.20;96.20;;;;;;5001416;28;20023;-69
2022/08/28 10:07:34;;;;;;;0.35;0.30;;;26.40;95.70;;;;;;4974596;28;20042;-69
2022/08/28 10:10:34;;;;;;;0.95;0.45;;;26.70;95.40;;;;;;4974062;28;20118;-68
2022/08/28 10:13:27;;;;;;;0.10;0.10;;;26.60;94.80;;;;;;4973415;28;20037;-69
2022/08/28 10:16:15;;;;;;;0.65;0.50;;;26.80;94.90;;;;;;4973234;28;20170;-69
2022/08/28 10:19:23;;;;;;;0.25;0.20;;;26.70;94.90;;;;;;4974127;28;20157;-69
2022/08/28 10:22:30;;;;;;;0.08;0.05;;;26.90;94.60;;;;;;4982437;28;20081;-69
2022/08/28 10:25:05;;;;;;;1.00;0.68;;;26.90;94.20;;;;;;4965410;28;20402;-69
2022/08/28 10:28:00;;;;;;;3.25;0.52;;;26.80;93.80;;;;;;4978474;28;20073;-69
2022/08/28 10:30:30;;;;;;;14.48;0.75;;;26.50;94.50;;;;;;4991710;28;20121;-69
2022/08/28 10:33:40;;;;;;;0.60;0.60;;;26.80;94.10;;;;;;4988697;28;20034;-69
2022/08/28 10:36:17;;;;;;;0.68;0.30;;;27.20;93.70;;;;;;4983574;28;20050;-68
2022/08/28 10:38:51;;;;;;;0.45;0.45;;;27.50;92.90;;;;;;4993222;28;20053;-68
2022/08/28 10:41:28;;;;;;;0.22;0.22;;;27.60;92.30;;;;;;4989758;28;20026;-68
2022/08/28 10:44:00;;;;;;;0.65;0.47;;;27.60;92.10;;;;;;4987775;28;20034;-68
2022/08/28 10:46:40;;;;;;;0.32;0.32;;;27.00;92.00;;;;;;4992115;28;20081;-68
2022/08/28 10:49:15;;;;;;;0.00;0.00;;;26.90;92.60;;;;;;4990994;28;20031;-68
2022/08/28 10:52:04;;;;;;;0.03;0.03;;;26.90;92.30;;;;;;4990954;28;20038;-68
2022/08/28 10:54:43;;;;;;;1.55;0.88;;;26.70;92.30;;;;;;5007283;28;20536;-67
2022/08/28 10:57:43;;;;;;;0.50;0.50;;;26.50;92.80;;;;;;5006289;28;20042;-68
2022/08/28 11:00:16;;;;;;;0.37;0.33;;;26.50;92.60;;;;;;4976100;28;20393;-68
2022/08/28 11:02:51;;;;;;;7.20;2.28;;;26.50;92.70;;;;;;4992268;28;20293;-68
2022/08/28 11:05:31;;;;;;;0.17;0.17;;;26.70;92.20;;;;;;5007307;28;20034;-68
2022/08/28 11:08:06;;;;;;;1.40;0.63;;;27.00;92.80;;;;;;4992578;28;20026;-68
2022/08/28 11:10:33;;;;;;;0.10;0.10;;;27.30;91.80;;;;;;5006757;28;20029;-68
2022/08/28 11:13:01;;;;;;;1.70;0.47;;;27.50;91.50;;;;;;4992233;28;20497;-67
2022/08/28 11:15:26;;;;;;;0.55;0.40;;;27.80;91.30;;;;;;5006926;28;20031;-69
2022/08/28 11:18:15;;;;;;;0.10;0.10;;;28.00;91.30;;;;;;4992132;28;20408;-68
2022/08/28 11:20:55;;;;;;;0.20;0.20;;;28.10;90.40;;;;;;4991779;28;20046;-67
2022/08/28 11:23:30;;;;;;;0.25;0.25;;;28.20;90.60;;;;;;4990683;28;20049;-68
2022/08/28 11:26:02;;;;;;;0.20;0.20;;;28.50;90.00;;;;;;5006280;28;20371;-68
2022/08/28 11:28:34;;;;;;;0.08;0.08;;;28.50;89.20;;;;;;4991007;28;20505;-68
2022/08/28 11:30:59;;;;;;;5.82;0.68;;;28.70;88.40;;;;;;4991778;28;20042;-68
2022/08/28 11:33:47;;;;;;;3.10;0.52;;;28.70;88.00;;;;;;4992015;28;20117;-68
2022/08/28 11:36:19;;;;;;;0.10;0.10;;;28.80;87.40;;;;;;4991468;28;20109;-68
2022/08/28 11:38:45;;;;;;;0.20;0.20;;;28.30;87.20;;;;;;4991518;28;20038;-62
2022/08/28 11:41:37;;;;;;;0.20;0.20;;;28.00;87.80;;;;;;4992390;28;20030;-68
2022/08/28 11:44:11;;;;;;;5.00;0.57;;;27.80;89.40;;;;;;4990822;28;20495;-70
2022/08/28 11:46:49;;;;;;;0.20;0.20;;;28.00;88.20;;;;;;4992279;28;20064;-69
2022/08/28 11:49:33;;;;;;;8.35;0.40;;;27.90;87.80;;;;;;4992125;28;20045;-68
2022/08/28 11:53:00;;;;;;;0.30;0.30;;;28.90;87.40;;;;;;4992148;28;20438;-69
2022/08/28 11:56:03;;;;;;;1.75;0.90;;;29.80;86.60;;;;;;4992058;28;20085;-69
2022/08/28 11:58:50;;;;;;;1.88;1.52;;;30.10;84.90;;;;;;4992087;28;20034;-69
2022/08/28 12:01:34;;;;;;;0.00;0.00;;;29.60;84.20;;;;;;4992037;28;20117;-68
2022/08/28 12:04:17;;;;;;;0.22;0.22;;;28.20;85.80;;;;;;4990628;28;20038;-67
2022/08/28 12:07:10;;;;;;;0.68;0.55;;;28.10;86.70;;;;;;4992020;28;20027;-68
2022/08/28 12:09:46;;;;;;;0.50;0.40;;;28.20;87.90;;;;;;4979982;28;20066;-67
2022/08/28 12:12:21;;;;;;;1.15;0.60;;;28.10;86.40;;;;;;4972309;28;20038;-67
2022/08/28 12:14:46;;;;;;;0.32;0.30;;;28.40;87.10;;;;;;4972432;28;20487;-69
2022/08/28 12:17:21;;;;;;;0.00;0.00;;;28.80;86.90;;;;;;4972490;28;20034;-71
2022/08/28 12:20:04;;;;;;;1.90;1.30;;;29.10;85.40;;;;;;4989297;28;20038;-68
2022/08/28 12:23:01;;;;;;;0.28;0.28;;;29.30;85.10;;;;;;4987407;28;20027;-68
2022/08/28 12:25:32;;;;;;;0.75;0.55;;;29.30;84.60;;;;;;4988888;28;20054;-67
2022/08/28 12:28:14;;;;;;;0.10;0.10;;;28.80;84.50;;;;;;4991297;28;20036;-67
2022/08/28 12:30:57;;;;;;;0.40;0.40;;;28.30;85.20;;;;;;4989849;28;20034;-67
2022/08/28 12:33:49;;;;;;;1.08;0.65;;;28.40;85.80;;;;;;4998421;28;20493;-68
2022/08/28 12:36:17;;;;;;;0.20;0.10;;;29.20;85.40;;;;;;4991317;28;20042;-67
2022/08/28 12:38:49;;;;;;;0.28;0.28;;;30.00;83.60;;;;;;4989765;28;20128;-69
2022/08/28 12:41:17;;;;;;;0.40;0.40;;;30.50;82.20;;;;;;4974188;28;20113;-72
2022/08/28 12:43:47;;;;;;;0.22;0.22;;;30.50;81.70;;;;;;4991190;28;20042;-70
2022/08/28 12:46:35;;;;;;;0.63;0.63;;;30.20;82.30;;;;;;4990116;28;20145;-69
2022/08/28 12:49:23;;;;;;;0.30;0.30;;;30.00;81.60;;;;;;4990713;28;20034;-70
2022/08/28 12:51:49;;;;;;;0.13;0.13;;;29.70;82.10;;;;;;5006276;28;20731;-69
2022/08/28 12:54:16;;;;;;;0.10;0.08;;;29.30;82.70;;;;;;4994946;28;20041;-68
2022/08/28 12:56:42;;;;;;;0.70;0.60;;;29.40;82.00;;;;;;4994985;28;20061;-68
2022/08/28 12:59:36;;;;;;;0.70;0.52;;;29.20;81.60;;;;;;5010057;28;20061;-68
2022/08/28 13:02:19;;;;;;;0.00;0.00;;;29.90;81.20;;;;;;4993336;28;20035;-69
2022/08/28 13:04:59;;;;;;;0.47;0.30;;;30.10;80.70;;;;;;4993791;28;20462;-68
2022/08/28 13:07:39;;;;;;;2.63;0.35;;;30.80;80.20;;;;;;4993906;28;20109;-69
2022/08/28 13:10:23;;;;;;;0.00;0.00;;;30.40;79.80;;;;;;4994605;28;20061;-68
2022/08/28 13:13:01;;;;;;;0.10;0.10;;;30.50;80.00;;;;;;4994720;28;20042;-69
2022/08/28 13:16:02;;;;;;;0.57;0.50;;;30.10;80.10;;;;;;4994608;28;20031;-68
2022/08/28 13:18:39;;;;;;;0.45;0.45;;;29.90;80.50;;;;;;4994574;28;20030;-68
2022/08/28 13:21:24;;;;;;;0.40;0.40;;;29.60;80.60;;;;;;4993094;28;20050;-68
2022/08/28 13:23:57;;;;;;;1.50;0.47;;;29.00;81.80;;;;;;4994301;28;20035;-69
2022/08/28 13:26:36;;;;;;;0.45;0.45;;;28.80;82.00;;;;;;4994572;28;20026;-68